Sai Nv Wang — 9HA2856 — position and weather

sailwx.info

Track history (hours):
 
Tides and Currents Weather Stations Pressure Air Temp Water Temp Dewpoint Dewpoint Depression Visibility Wind Speed Wind Dir Waves Ship Positions

Sai Nv Wang

Last reported at 2018-Jun-21 23:11 UTC. Time now 2018-Jun-22 11:29 UTC.
Position N 36°55' W 009°34'.

Length 157 m.

Type: Cargo ship. MMSI: 215589000.

Date/timePositionNaut miles runAvg speedWind from/ knotsBaromVisibWave heightAir tempDewpointWater temp
2018-Jun-21 23:11N 36°55' W 009°34'212.4
2018-Jun-21 23:00N 36°57' W 009°35'1612.4
2018-Jun-21 21:41N 37°13' W 009°39'412.7
2018-Jun-21 21:23N 37°17' W 009°41'1212.7
2018-Jun-21 20:26N 37°29' W 009°44'512.5
2018-Jun-21 20:00N 37°34' W 009°45'712.5
2018-Jun-21 19:28N 37°41' W 009°47'612.5
2018-Jun-21 19:01N 37°46' W 009°49'1013.0
2018-Jun-21 18:16N 37°55' W 009°52'412.7
2018-Jun-21 17:59N 37°59' W 009°53'612.3
2018-Jun-21 17:31N 38°05' W 009°55'612.8
2018-Jun-21 17:00N 38°11' W 009°57'612.7
2018-Jun-21 16:30N 38°17' W 009°58'612.6
2018-Jun-21 16:00N 38°23' W 009°60'612.5
2018-Jun-21 15:30N 38°29' W 010°02'612.7
2018-Jun-21 15:00N 38°36' W 010°03'612.4
2018-Jun-21 14:30N 38°42' W 010°05'612.2
2018-Jun-21 14:01N 38°48' W 010°06'612.3
2018-Jun-21 13:30N 38°54' W 010°06'612.3
2018-Jun-21 12:59N 39°00' W 010°06'612.3
2018-Jun-21 12:30N 39°06' W 010°05'612.2
2018-Jun-21 12:00N 39°12' W 010°05'612.1
2018-Jun-21 11:30N 39°18' W 010°05'612.1
2018-Jun-21 11:01N 39°24' W 010°04'310 9.2
2018-Jun-20 01:26N 43°43' W 006°14'812.7
2018-Jun-20 00:50N 43°42' W 006°04'412.7
2018-Jun-20 00:30N 43°42' W 005°58'712.8
2018-Jun-19 23:59N 43°42' W 005°49'8712.3
2018-Jun-19 16:55N 43°32' W 003°49'512.3
2018-Jun-19 16:30N 43°32' W 003°42'612.5
2018-Jun-19 16:01N 43°32' W 003°34'612.5
2018-Jun-19 15:31N 43°33' W 003°25'612.1
2018-Jun-19 15:01N 43°30' W 003°18'611.4
2018-Jun-19 14:30N 43°27' W 003°11'4 7.7
2018-Jun-19 13:58N 43°24' W 003°07'0 0.1
2018-Jun-19 13:28N 43°24' W 003°07'0 0.1
2018-Jun-19 12:58N 43°24' W 003°07'0 0.1
2018-Jun-19 12:28N 43°24' W 003°07'0 0.0
2018-Jun-19 11:58N 43°24' W 003°07'0 0.0
2018-Jun-19 11:28N 43°24' W 003°07'0 0.0
2018-Jun-19 10:58N 43°24' W 003°07'0 0.1
2018-Jun-19 10:28N 43°24' W 003°07'0 0.1
2018-Jun-19 09:58N 43°24' W 003°07'0 0.0
2018-Jun-19 09:28N 43°24' W 003°07'0 0.1
2018-Jun-19 08:58N 43°24' W 003°07'0 0.0
2018-Jun-19 08:28N 43°24' W 003°07'0 0.0
2018-Jun-19 07:58N 43°24' W 003°07'0 0.0
2018-Jun-19 07:28N 43°24' W 003°07'0 0.1
2018-Jun-19 06:58N 43°24' W 003°07'0 0.0
2018-Jun-19 06:28N 43°24' W 003°07'0 0.0
2018-Jun-19 05:58N 43°24' W 003°07'0 0.0
2018-Jun-19 05:28N 43°24' W 003°07'0 0.0
2018-Jun-19 04:58N 43°24' W 003°07'0 0.0
2018-Jun-19 04:28N 43°24' W 003°07'0 0.0
2018-Jun-19 03:58N 43°24' W 003°07'0 0.0
2018-Jun-19 03:28N 43°24' W 003°07'0 0.0
2018-Jun-19 02:58N 43°24' W 003°07'0 0.0
2018-Jun-19 02:28N 43°24' W 003°07'0 0.0
2018-Jun-19 01:58N 43°24' W 003°07'0 0.0
2018-Jun-19 01:28N 43°24' W 003°07'0 0.0
2018-Jun-19 00:58N 43°24' W 003°07'0 0.0
2018-Jun-19 00:28N 43°24' W 003°07'0 0.0
2018-Jun-18 23:58N 43°24' W 003°07'0 0.0
2018-Jun-18 23:28N 43°24' W 003°07'0 0.0
2018-Jun-18 22:58N 43°24' W 003°07'0 0.0
2018-Jun-18 22:28N 43°24' W 003°07'0 0.0
2018-Jun-18 21:58N 43°24' W 003°07'0 0.0
2018-Jun-18 21:28N 43°24' W 003°07'0 0.0
2018-Jun-18 20:58N 43°24' W 003°07'0 0.0
2018-Jun-18 20:22N 43°24' W 003°07'0 0.1
2018-Jun-18 19:55N 43°24' W 003°07'0 0.1
2018-Jun-18 19:31N 43°24' W 003°07'3 6.2
2018-Jun-18 19:00N 43°22' W 003°03'1 1.0
2018-Jun-18 18:29N 43°21' W 003°03'0 0.0
2018-Jun-18 17:59N 43°21' W 003°03'0 0.0
2018-Jun-18 17:29N 43°21' W 003°03'0 0.0
2018-Jun-18 16:59N 43°21' W 003°03'0 0.0
2018-Jun-18 16:29N 43°21' W 003°03'0 0.0
2018-Jun-18 15:59N 43°21' W 003°03'0 0.0
2018-Jun-18 15:29N 43°21' W 003°03'0 0.0
2018-Jun-18 14:59N 43°21' W 003°03'0 0.0
2018-Jun-18 14:29N 43°21' W 003°03'0 0.0
2018-Jun-18 13:59N 43°21' W 003°03'0 0.0
2018-Jun-18 13:29N 43°21' W 003°03'0 0.0
2018-Jun-18 12:59N 43°21' W 003°03'0 0.0
2018-Jun-18 12:29N 43°21' W 003°03'0 0.0
2018-Jun-18 11:59N 43°21' W 003°03'0 0.0
2018-Jun-18 11:23N 43°21' W 003°03'0 0.0
2018-Jun-18 10:59N 43°21' W 003°03'0 0.0
2018-Jun-18 10:26N 43°21' W 003°03'0 0.0
2018-Jun-18 09:59N 43°21' W 003°03'0 0.0
2018-Jun-18 09:29N 43°21' W 003°03'0 0.0
2018-Jun-18 08:59N 43°21' W 003°03'0 0.0
2018-Jun-18 08:29N 43°21' W 003°03'0 0.0
2018-Jun-18 07:59N 43°21' W 003°03'0 0.0
2018-Jun-18 07:29N 43°21' W 003°03'0 0.0
2018-Jun-18 06:59N 43°21' W 003°03'0 0.0
2018-Jun-18 06:29N 43°21' W 003°03'0 0.0
2018-Jun-18 05:59N 43°21' W 003°03'0 0.0
2018-Jun-18 05:29N 43°21' W 003°03'0 0.0
2018-Jun-18 04:59N 43°21' W 003°03'0 0.0
2018-Jun-18 04:29N 43°21' W 003°03'0 0.0
2018-Jun-18 03:59N 43°21' W 003°03'0 0.0
2018-Jun-18 03:29N 43°21' W 003°03'0 0.0
2018-Jun-18 02:59N 43°21' W 003°03'0 0.0
2018-Jun-18 02:29N 43°21' W 003°03'0 0.0
2018-Jun-18 01:59N 43°21' W 003°03'0 0.0
2018-Jun-18 01:29N 43°21' W 003°03'0 0.0
2018-Jun-18 00:59N 43°21' W 003°03'0 0.0
2018-Jun-18 00:29N 43°21' W 003°03'0 0.0
2018-Jun-17 23:56N 43°21' W 003°03'0 0.0
2018-Jun-17 23:26N 43°21' W 003°03'0 0.0
2018-Jun-17 22:59N 43°21' W 003°03'0 0.0
2018-Jun-17 22:29N 43°21' W 003°03'0 0.0
2018-Jun-17 21:59N 43°21' W 003°03'0 0.0
2018-Jun-17 21:29N 43°21' W 003°03'0 0.0
2018-Jun-17 20:59N 43°21' W 003°03'0 0.0
2018-Jun-17 20:29N 43°21' W 003°03'0 0.0
2018-Jun-17 19:59N 43°21' W 003°03'0 0.0
2018-Jun-17 19:29N 43°21' W 003°03'0 0.0
2018-Jun-17 18:59N 43°21' W 003°03'0 0.0
2018-Jun-17 18:29N 43°21' W 003°03'0 0.0
2018-Jun-17 17:59N 43°21' W 003°03'0 0.0
2018-Jun-17 17:29N 43°21' W 003°03'0 0.0
2018-Jun-17 16:59N 43°21' W 003°03'0 0.0
2018-Jun-17 16:29N 43°21' W 003°03'0 0.0
2018-Jun-17 15:59N 43°21' W 003°03'0 0.0
2018-Jun-17 15:29N 43°21' W 003°03'0 0.0
2018-Jun-17 14:59N 43°21' W 003°03'0 0.0
2018-Jun-17 14:29N 43°21' W 003°03'0 0.0
2018-Jun-17 13:59N 43°21' W 003°03'0 0.0
2018-Jun-17 13:29N 43°21' W 003°03'0 0.0
2018-Jun-17 12:56N 43°21' W 003°03'0 0.0
2018-Jun-17 12:29N 43°21' W 003°03'0 0.0
2018-Jun-17 11:59N 43°21' W 003°03'0 0.0
2018-Jun-17 11:29N 43°21' W 003°03'0 0.0
2018-Jun-17 10:56N 43°21' W 003°03'0 0.0
2018-Jun-17 10:29N 43°21' W 003°03'0 0.0
2018-Jun-17 09:59N 43°21' W 003°03'0 0.0
2018-Jun-17 09:29N 43°21' W 003°03'0 0.0
2018-Jun-17 08:59N 43°21' W 003°03'0 0.0
2018-Jun-17 08:29N 43°21' W 003°03'0 0.0
2018-Jun-17 07:59N 43°21' W 003°03'0 0.0
2018-Jun-17 07:29N 43°21' W 003°03'0 0.0
2018-Jun-17 06:59N 43°21' W 003°03'0 0.0
2018-Jun-17 06:29N 43°21' W 003°03'0 0.0
2018-Jun-17 05:59N 43°21' W 003°03'0 0.0
2018-Jun-17 05:29N 43°21' W 003°03'0 0.0
2018-Jun-17 04:59N 43°21' W 003°03'0 0.0
2018-Jun-17 04:29N 43°21' W 003°03'0 0.0
2018-Jun-17 03:59N 43°21' W 003°03'0 0.0
2018-Jun-17 03:29N 43°21' W 003°03'0 0.0
2018-Jun-17 02:59N 43°21' W 003°03'0 0.0
2018-Jun-17 02:23N 43°21' W 003°03'0 0.0
2018-Jun-17 01:59N 43°21' W 003°03'0 0.0
2018-Jun-17 01:26N 43°21' W 003°03'0 0.0
2018-Jun-17 00:59N 43°21' W 003°03'0 0.0
2018-Jun-17 00:29N 43°21' W 003°03'0 0.0
2018-Jun-16 23:59N 43°21' W 003°03'0 0.0
2018-Jun-16 23:29N 43°21' W 003°03'0 0.0
2018-Jun-16 22:59N 43°21' W 003°03'0 0.0
2018-Jun-16 22:29N 43°21' W 003°03'0 0.0
2018-Jun-16 21:59N 43°21' W 003°03'0 0.0
2018-Jun-16 21:29N 43°21' W 003°03'0 0.0
2018-Jun-16 20:59N 43°21' W 003°03'0 0.0
2018-Jun-16 20:29N 43°21' W 003°03'1 1.2
2018-Jun-16 20:00N 43°21' W 003°03'3 6.3
2018-Jun-16 19:30N 43°23' W 003°06'0 0.8
2018-Jun-16 18:59N 43°23' W 003°07'0 0.0
2018-Jun-16 18:29N 43°23' W 003°07'0 0.0
2018-Jun-16 17:59N 43°23' W 003°07'0 0.0
2018-Jun-16 17:29N 43°23' W 003°07'0 0.0
2018-Jun-16 16:59N 43°23' W 003°07'0 0.0
2018-Jun-16 16:29N 43°23' W 003°07'0 0.0
2018-Jun-16 15:59N 43°23' W 003°07'0 0.0
2018-Jun-16 15:29N 43°23' W 003°07'0 0.1
2018-Jun-16 14:59N 43°23' W 003°07'0 0.0
2018-Jun-16 14:29N 43°23' W 003°07'0 0.0
2018-Jun-16 13:59N 43°23' W 003°07'0 0.0
2018-Jun-16 13:29N 43°23' W 003°07'0 0.0
2018-Jun-16 12:59N 43°23' W 003°07'0 0.0
2018-Jun-16 12:29N 43°23' W 003°07'0 0.0
2018-Jun-16 11:59N 43°23' W 003°07'0 0.0
2018-Jun-16 11:29N 43°23' W 003°07'0 0.0
2018-Jun-16 10:59N 43°23' W 003°07'0 0.0
2018-Jun-16 10:29N 43°23' W 003°07'0 0.1
2018-Jun-16 09:59N 43°23' W 003°06'0 0.0
2018-Jun-16 09:29N 43°23' W 003°06'0 0.0
2018-Jun-16 08:59N 43°23' W 003°06'0 0.0
2018-Jun-16 08:26N 43°23' W 003°06'0 0.0
2018-Jun-16 07:59N 43°23' W 003°06'0 0.0
2018-Jun-16 07:29N 43°23' W 003°06'0 0.0
2018-Jun-16 06:59N 43°23' W 003°06'0 0.0
2018-Jun-16 06:29N 43°23' W 003°06'0 0.0
2018-Jun-16 05:59N 43°23' W 003°06'0 0.0
2018-Jun-16 05:29N 43°23' W 003°06'0 0.0
2018-Jun-16 04:59N 43°23' W 003°06'0 0.0
2018-Jun-16 04:29N 43°23' W 003°06'0 0.0
2018-Jun-16 03:59N 43°23' W 003°06'0 0.0
2018-Jun-16 03:29N 43°23' W 003°06'0 0.0
2018-Jun-16 02:59N 43°23' W 003°06'0 0.0
2018-Jun-16 02:29N 43°23' W 003°06'0 0.0
2018-Jun-16 01:59N 43°23' W 003°06'0 0.0
2018-Jun-16 01:29N 43°23' W 003°07'0 0.0
2018-Jun-16 00:59N 43°23' W 003°06'0 0.0
2018-Jun-16 00:29N 43°23' W 003°06'0 0.0
2018-Jun-15 23:59N 43°23' W 003°06'0 0.0
2018-Jun-15 23:29N 43°23' W 003°06'0 0.0
2018-Jun-15 22:59N 43°23' W 003°06'0 0.0
2018-Jun-15 22:29N 43°23' W 003°06'0 0.0
2018-Jun-15 21:59N 43°23' W 003°06'0 0.0
2018-Jun-15 21:29N 43°23' W 003°06'0 0.0
2018-Jun-15 20:59N 43°23' W 003°06'0 0.0
2018-Jun-15 20:29N 43°23' W 003°06'0 0.0
2018-Jun-15 19:59N 43°23' W 003°06'0 0.0
2018-Jun-15 19:29N 43°23' W 003°07'0 0.0
2018-Jun-15 18:59N 43°23' W 003°07'0 0.0
2018-Jun-15 18:29N 43°23' W 003°07'0 0.0
2018-Jun-15 17:38N 43°23' W 003°07'0 0.0
2018-Jun-15 17:29N 43°23' W 003°07'0 0.0
2018-Jun-15 16:58N 43°23' W 003°07'0 0.1
2018-Jun-15 16:28N 43°23' W 003°06'0 0.0
2018-Jun-15 15:59N 43°23' W 003°06'0 0.0
2018-Jun-15 15:28N 43°23' W 003°06'0 0.0
2018-Jun-15 14:59N 43°23' W 003°06'0 0.0
2018-Jun-15 14:29N 43°23' W 003°06'0 0.0
2018-Jun-15 13:56N 43°23' W 003°06'0 0.0
2018-Jun-15 13:29N 43°23' W 003°06'0 0.0
2018-Jun-15 12:59N 43°23' W 003°06'0 0.0
2018-Jun-15 12:29N 43°23' W 003°06'0 0.0
2018-Jun-15 11:59N 43°23' W 003°06'0 0.0
2018-Jun-15 11:28N 43°23' W 003°06'0 0.0
2018-Jun-15 10:59N 43°23' W 003°06'0 0.0
2018-Jun-15 10:29N 43°23' W 003°06'0 0.0
2018-Jun-15 09:59N 43°23' W 003°06'0 0.0
2018-Jun-15 09:28N 43°23' W 003°06'0 0.0
2018-Jun-15 08:58N 43°23' W 003°06'0 0.0
2018-Jun-15 08:26N 43°23' W 003°06'0 0.0
2018-Jun-15 07:59N 43°23' W 003°06'0 0.0
2018-Jun-15 07:28N 43°23' W 003°06'0 0.1
2018-Jun-15 06:58N 43°23' W 003°06'0 0.0
2018-Jun-15 06:25N 43°23' W 003°06'0 0.1
2018-Jun-15 05:58N 43°23' W 003°06'0 0.1
2018-Jun-15 05:28N 43°23' W 003°07'0 0.1
2018-Jun-15 04:58N 43°23' W 003°07'0 0.0
2018-Jun-15 04:28N 43°23' W 003°07'0 0.0
2018-Jun-15 03:58N 43°23' W 003°07'0 0.1
2018-Jun-15 03:26N 43°23' W 003°07'0 0.1
2018-Jun-15 02:58N 43°23' W 003°07'0 0.1
2018-Jun-15 02:29N 43°23' W 003°06'0 0.1
2018-Jun-15 01:58N 43°23' W 003°06'0 0.1
2018-Jun-15 01:28N 43°23' W 003°06'0 0.1
2018-Jun-15 00:58N 43°24' W 003°06'0 0.1
2018-Jun-15 00:29N 43°24' W 003°06'3 6.3
2018-Jun-15 00:00N 43°27' W 003°07'612.0
2018-Jun-14 23:30N 43°32' W 003°10'612.4
2018-Jun-14 23:00N 43°38' W 003°13'612.2
2018-Jun-14 22:30N 43°44' W 003°16'913.3
2018-Jun-14 21:48N 43°53' W 003°20'413.5
2018-Jun-14 21:29N 43°57' W 003°22'1113.5
2018-Jun-14 20:41N 44°07' W 003°28'17112.3
2018-Jun-14 06:48N 46°47' W 004°54'513.3
2018-Jun-14 06:25N 46°52' W 004°57'913.6
2018-Jun-14 05:48N 46°59' W 005°01'513.9
2018-Jun-14 05:28N 47°04' W 005°04'713.8
2018-Jun-14 04:57N 47°10' W 005°08'1113.3
2018-Jun-14 04:06N 47°21' W 005°13'813.3
2018-Jun-14 03:31N 47°28' W 005°17'013.5
2018-Jun-14 03:30N 47°29' W 005°17'812.8
2018-Jun-14 02:53N 47°36' W 005°21'6312.4
2018-Jun-13 21:45N 48°36' W 005°53'412.2
2018-Jun-13 21:28N 48°39' W 005°55'1313.9
2018-Jun-13 20:33N 48°51' W 005°49'3711.8
2018-Jun-13 17:26N 49°12' W 005°03'6511.5
2018-Jun-13 11:43N 49°44' W 003°36'414.3
2018-Jun-13 11:26N 49°46' W 003°30'714.0
2018-Jun-13 10:57N 49°49' W 003°21'613.6
2018-Jun-13 10:30N 49°52' W 003°13'713.2
2018-Jun-13 10:00N 49°55' W 003°04'613.0
2018-Jun-13 09:31N 49°58' W 002°55'612.5
2018-Jun-13 09:00N 50°01' W 002°46'711.8
2018-Jun-13 08:27N 50°03' W 002°36'2510.2
2018-Jun-13 06:02N 50°10' W 001°59'010.4
2018-Jun-13 06:01N 50°10' W 001°59'610.5
2018-Jun-13 05:26N 50°11' W 001°50'511.3
2018-Jun-13 05:01N 50°13' W 001°42'612.2
2018-Jun-13 04:30N 50°14' W 001°33'713.3
2018-Jun-13 04:00N 50°16' W 001°23'714.4
2018-Jun-13 03:30N 50°18' W 001°12'1715.7
2018-Jun-13 02:24N 50°23' W 000°46'615.8
2018-Jun-13 02:00N 50°25' W 000°37'3514.6
2018-Jun-12 23:35N 50°35' E 000°17'113.6
2018-Jun-12 23:30N 50°35' E 000°18'713.4
2018-Jun-12 23:00N 50°37' E 000°29'713.1
2018-Jun-12 22:30N 50°40' E 000°38'612.6
2018-Jun-12 22:00N 50°43' E 000°46'712.6
2018-Jun-12 21:29N 50°47' E 000°54'1212.7
2018-Jun-12 20:33N 50°55' E 001°09'113.2
2018-Jun-12 20:28N 50°55' E 001°10'613.5
2018-Jun-12 20:01N 50°59' E 001°18'815.0
2018-Jun-12 19:30N 51°04' E 001°28'816.7
2018-Jun-12 19:00N 51°09' E 001°38'816.2
2018-Jun-12 18:30N 51°15' E 001°47'816.3
2018-Jun-12 18:00N 51°22' E 001°53'815.1
2018-Jun-12 17:30N 51°28' E 001°59'714.6
2018-Jun-12 17:00N 51°34' E 002°07'714.1
2018-Jun-12 16:29N 51°39' E 002°15'14312.9
2018-Jun-12 05:25N 53°30' E 004°44'512.0
2018-Jun-12 05:00N 53°32' E 004°52'711.9
2018-Jun-12 04:26N 53°34' E 005°02'  
Track history (hours):
 
Tides and Currents Weather Stations Pressure Air Temp Water Temp Dewpoint Dewpoint Depression Visibility Wind Speed Wind Dir Waves Ship Positions

Sai Nv Wang

Last reported at 2018-Jun-21 23:11 UTC. Time now 2018-Jun-22 11:29 UTC.
Position N 36°55' W 009°34'.

Length 157 m.

Type: Cargo ship. MMSI: 215589000.

Date/timePositionNaut miles runAvg speedWind from/ knotsBaromVisibWave heightAir tempDewpointWater temp
2018-Jun-21 23:11N 36°55' W 009°34'212.4
2018-Jun-21 23:00N 36°57' W 009°35'1612.4
2018-Jun-21 21:41N 37°13' W 009°39'412.7
2018-Jun-21 21:23N 37°17' W 009°41'1212.7
2018-Jun-21 20:26N 37°29' W 009°44'512.5
2018-Jun-21 20:00N 37°34' W 009°45'712.5
2018-Jun-21 19:28N 37°41' W 009°47'612.5
2018-Jun-21 19:01N 37°46' W 009°49'1013.0
2018-Jun-21 18:16N 37°55' W 009°52'412.7
2018-Jun-21 17:59N 37°59' W 009°53'612.3
2018-Jun-21 17:31N 38°05' W 009°55'612.8
2018-Jun-21 17:00N 38°11' W 009°57'612.7
2018-Jun-21 16:30N 38°17' W 009°58'612.6
2018-Jun-21 16:00N 38°23' W 009°60'612.5
2018-Jun-21 15:30N 38°29' W 010°02'612.7
2018-Jun-21 15:00N 38°36' W 010°03'612.4
2018-Jun-21 14:30N 38°42' W 010°05'612.2
2018-Jun-21 14:01N 38°48' W 010°06'612.3
2018-Jun-21 13:30N 38°54' W 010°06'612.3
2018-Jun-21 12:59N 39°00' W 010°06'612.3
2018-Jun-21 12:30N 39°06' W 010°05'612.2
2018-Jun-21 12:00N 39°12' W 010°05'612.1
2018-Jun-21 11:30N 39°18' W 010°05'612.1
2018-Jun-21 11:01N 39°24' W 010°04'310 9.2
2018-Jun-20 01:26N 43°43' W 006°14'812.7
2018-Jun-20 00:50N 43°42' W 006°04'412.7
2018-Jun-20 00:30N 43°42' W 005°58'712.8
2018-Jun-19 23:59N 43°42' W 005°49'8712.3
2018-Jun-19 16:55N 43°32' W 003°49'512.3
2018-Jun-19 16:30N 43°32' W 003°42'612.5
2018-Jun-19 16:01N 43°32' W 003°34'612.5
2018-Jun-19 15:31N 43°33' W 003°25'612.1
2018-Jun-19 15:01N 43°30' W 003°18'611.4
2018-Jun-19 14:30N 43°27' W 003°11'4 7.7
2018-Jun-19 13:58N 43°24' W 003°07'0 0.1
2018-Jun-19 13:28N 43°24' W 003°07'0 0.1
2018-Jun-19 12:58N 43°24' W 003°07'0 0.1
2018-Jun-19 12:28N 43°24' W 003°07'0 0.0
2018-Jun-19 11:58N 43°24' W 003°07'0 0.0
2018-Jun-19 11:28N 43°24' W 003°07'0 0.0
2018-Jun-19 10:58N 43°24' W 003°07'0 0.1
2018-Jun-19 10:28N 43°24' W 003°07'0 0.1
2018-Jun-19 09:58N 43°24' W 003°07'0 0.0
2018-Jun-19 09:28N 43°24' W 003°07'0 0.1
2018-Jun-19 08:58N 43°24' W 003°07'0 0.0
2018-Jun-19 08:28N 43°24' W 003°07'0 0.0
2018-Jun-19 07:58N 43°24' W 003°07'0 0.0
2018-Jun-19 07:28N 43°24' W 003°07'0 0.1
2018-Jun-19 06:58N 43°24' W 003°07'0 0.0
2018-Jun-19 06:28N 43°24' W 003°07'0 0.0
2018-Jun-19 05:58N 43°24' W 003°07'0 0.0
2018-Jun-19 05:28N 43°24' W 003°07'0 0.0
2018-Jun-19 04:58N 43°24' W 003°07'0 0.0
2018-Jun-19 04:28N 43°24' W 003°07'0 0.0
2018-Jun-19 03:58N 43°24' W 003°07'0 0.0
2018-Jun-19 03:28N 43°24' W 003°07'0 0.0
2018-Jun-19 02:58N 43°24' W 003°07'0 0.0
2018-Jun-19 02:28N 43°24' W 003°07'0 0.0
2018-Jun-19 01:58N 43°24' W 003°07'0 0.0
2018-Jun-19 01:28N 43°24' W 003°07'0 0.0
2018-Jun-19 00:58N 43°24' W 003°07'0 0.0
2018-Jun-19 00:28N 43°24' W 003°07'0 0.0
2018-Jun-18 23:58N 43°24' W 003°07'0 0.0
2018-Jun-18 23:28N 43°24' W 003°07'0 0.0
2018-Jun-18 22:58N 43°24' W 003°07'0 0.0
2018-Jun-18 22:28N 43°24' W 003°07'0 0.0
2018-Jun-18 21:58N 43°24' W 003°07'0 0.0
2018-Jun-18 21:28N 43°24' W 003°07'0 0.0
2018-Jun-18 20:58N 43°24' W 003°07'0 0.0
2018-Jun-18 20:22N 43°24' W 003°07'0 0.1
2018-Jun-18 19:55N 43°24' W 003°07'0 0.1
2018-Jun-18 19:31N 43°24' W 003°07'3 6.2
2018-Jun-18 19:00N 43°22' W 003°03'1 1.0
2018-Jun-18 18:29N 43°21' W 003°03'0 0.0
2018-Jun-18 17:59N 43°21' W 003°03'0 0.0
2018-Jun-18 17:29N 43°21' W 003°03'0 0.0
2018-Jun-18 16:59N 43°21' W 003°03'0 0.0
2018-Jun-18 16:29N 43°21' W 003°03'0 0.0
2018-Jun-18 15:59N 43°21' W 003°03'0 0.0
2018-Jun-18 15:29N 43°21' W 003°03'0 0.0
2018-Jun-18 14:59N 43°21' W 003°03'0 0.0
2018-Jun-18 14:29N 43°21' W 003°03'0 0.0
2018-Jun-18 13:59N 43°21' W 003°03'0 0.0
2018-Jun-18 13:29N 43°21' W 003°03'0 0.0
2018-Jun-18 12:59N 43°21' W 003°03'0 0.0
2018-Jun-18 12:29N 43°21' W 003°03'0 0.0
2018-Jun-18 11:59N 43°21' W 003°03'0 0.0
2018-Jun-18 11:23N 43°21' W 003°03'0 0.0
2018-Jun-18 10:59N 43°21' W 003°03'0 0.0
2018-Jun-18 10:26N 43°21' W 003°03'0 0.0
2018-Jun-18 09:59N 43°21' W 003°03'0 0.0
2018-Jun-18 09:29N 43°21' W 003°03'0 0.0
2018-Jun-18 08:59N 43°21' W 003°03'0 0.0
2018-Jun-18 08:29N 43°21' W 003°03'0 0.0
2018-Jun-18 07:59N 43°21' W 003°03'0 0.0
2018-Jun-18 07:29N 43°21' W 003°03'0 0.0
2018-Jun-18 06:59N 43°21' W 003°03'0 0.0
2018-Jun-18 06:29N 43°21' W 003°03'0 0.0
2018-Jun-18 05:59N 43°21' W 003°03'0 0.0
2018-Jun-18 05:29N 43°21' W 003°03'0 0.0
2018-Jun-18 04:59N 43°21' W 003°03'0 0.0
2018-Jun-18 04:29N 43°21' W 003°03'0 0.0
2018-Jun-18 03:59N 43°21' W 003°03'0 0.0
2018-Jun-18 03:29N 43°21' W 003°03'0 0.0
2018-Jun-18 02:59N 43°21' W 003°03'0 0.0
2018-Jun-18 02:29N 43°21' W 003°03'0 0.0
2018-Jun-18 01:59N 43°21' W 003°03'0 0.0
2018-Jun-18 01:29N 43°21' W 003°03'0 0.0
2018-Jun-18 00:59N 43°21' W 003°03'0 0.0
2018-Jun-18 00:29N 43°21' W 003°03'0 0.0
2018-Jun-17 23:56N 43°21' W 003°03'0 0.0
2018-Jun-17 23:26N 43°21' W 003°03'0 0.0
2018-Jun-17 22:59N 43°21' W 003°03'0 0.0
2018-Jun-17 22:29N 43°21' W 003°03'0 0.0
2018-Jun-17 21:59N 43°21' W 003°03'0 0.0
2018-Jun-17 21:29N 43°21' W 003°03'0 0.0
2018-Jun-17 20:59N 43°21' W 003°03'0 0.0
2018-Jun-17 20:29N 43°21' W 003°03'0 0.0
2018-Jun-17 19:59N 43°21' W 003°03'0 0.0
2018-Jun-17 19:29N 43°21' W 003°03'0 0.0
2018-Jun-17 18:59N 43°21' W 003°03'0 0.0
2018-Jun-17 18:29N 43°21' W 003°03'0 0.0
2018-Jun-17 17:59N 43°21' W 003°03'0 0.0
2018-Jun-17 17:29N 43°21' W 003°03'0 0.0
2018-Jun-17 16:59N 43°21' W 003°03'0 0.0
2018-Jun-17 16:29N 43°21' W 003°03'0 0.0
2018-Jun-17 15:59N 43°21' W 003°03'0 0.0
2018-Jun-17 15:29N 43°21' W 003°03'0 0.0
2018-Jun-17 14:59N 43°21' W 003°03'0 0.0
2018-Jun-17 14:29N 43°21' W 003°03'0 0.0
2018-Jun-17 13:59N 43°21' W 003°03'0 0.0
2018-Jun-17 13:29N 43°21' W 003°03'0 0.0
2018-Jun-17 12:56N 43°21' W 003°03'0 0.0
2018-Jun-17 12:29N 43°21' W 003°03'0 0.0
2018-Jun-17 11:59N 43°21' W 003°03'0 0.0
2018-Jun-17 11:29N 43°21' W 003°03'0 0.0
2018-Jun-17 10:56N 43°21' W 003°03'0 0.0
2018-Jun-17 10:29N 43°21' W 003°03'0 0.0
2018-Jun-17 09:59N 43°21' W 003°03'0 0.0
2018-Jun-17 09:29N 43°21' W 003°03'0 0.0
2018-Jun-17 08:59N 43°21' W 003°03'0 0.0
2018-Jun-17 08:29N 43°21' W 003°03'0 0.0
2018-Jun-17 07:59N 43°21' W 003°03'0 0.0
2018-Jun-17 07:29N 43°21' W 003°03'0 0.0
2018-Jun-17 06:59N 43°21' W 003°03'0 0.0
2018-Jun-17 06:29N 43°21' W 003°03'0 0.0
2018-Jun-17 05:59N 43°21' W 003°03'0 0.0
2018-Jun-17 05:29N 43°21' W 003°03'0 0.0
2018-Jun-17 04:59N 43°21' W 003°03'0 0.0
2018-Jun-17 04:29N 43°21' W 003°03'0 0.0
2018-Jun-17 03:59N 43°21' W 003°03'0 0.0
2018-Jun-17 03:29N 43°21' W 003°03'0 0.0
2018-Jun-17 02:59N 43°21' W 003°03'0 0.0
2018-Jun-17 02:23N 43°21' W 003°03'0 0.0
2018-Jun-17 01:59N 43°21' W 003°03'0 0.0
2018-Jun-17 01:26N 43°21' W 003°03'0 0.0
2018-Jun-17 00:59N 43°21' W 003°03'0 0.0
2018-Jun-17 00:29N 43°21' W 003°03'0 0.0
2018-Jun-16 23:59N 43°21' W 003°03'0 0.0
2018-Jun-16 23:29N 43°21' W 003°03'0 0.0
2018-Jun-16 22:59N 43°21' W 003°03'0 0.0
2018-Jun-16 22:29N 43°21' W 003°03'0 0.0
2018-Jun-16 21:59N 43°21' W 003°03'0 0.0
2018-Jun-16 21:29N 43°21' W 003°03'0 0.0
2018-Jun-16 20:59N 43°21' W 003°03'0 0.0
2018-Jun-16 20:29N 43°21' W 003°03'1 1.2
2018-Jun-16 20:00N 43°21' W 003°03'3 6.3
2018-Jun-16 19:30N 43°23' W 003°06'0 0.8
2018-Jun-16 18:59N 43°23' W 003°07'0 0.0
2018-Jun-16 18:29N 43°23' W 003°07'0 0.0
2018-Jun-16 17:59N 43°23' W 003°07'0 0.0
2018-Jun-16 17:29N 43°23' W 003°07'0 0.0
2018-Jun-16 16:59N 43°23' W 003°07'0 0.0
2018-Jun-16 16:29N 43°23' W 003°07'0 0.0
2018-Jun-16 15:59N 43°23' W 003°07'0 0.0
2018-Jun-16 15:29N 43°23' W 003°07'0 0.1
2018-Jun-16 14:59N 43°23' W 003°07'0 0.0
2018-Jun-16 14:29N 43°23' W 003°07'0 0.0
2018-Jun-16 13:59N 43°23' W 003°07'0 0.0
2018-Jun-16 13:29N 43°23' W 003°07'0 0.0
2018-Jun-16 12:59N 43°23' W 003°07'0 0.0
2018-Jun-16 12:29N 43°23' W 003°07'0 0.0
2018-Jun-16 11:59N 43°23' W 003°07'0 0.0
2018-Jun-16 11:29N 43°23' W 003°07'0 0.0
2018-Jun-16 10:59N 43°23' W 003°07'0 0.0
2018-Jun-16 10:29N 43°23' W 003°07'0 0.1
2018-Jun-16 09:59N 43°23' W 003°06'0 0.0
2018-Jun-16 09:29N 43°23' W 003°06'0 0.0
2018-Jun-16 08:59N 43°23' W 003°06'0 0.0
2018-Jun-16 08:26N 43°23' W 003°06'0 0.0
2018-Jun-16 07:59N 43°23' W 003°06'0 0.0
2018-Jun-16 07:29N 43°23' W 003°06'0 0.0
2018-Jun-16 06:59N 43°23' W 003°06'0 0.0
2018-Jun-16 06:29N 43°23' W 003°06'0 0.0
2018-Jun-16 05:59N 43°23' W 003°06'0 0.0
2018-Jun-16 05:29N 43°23' W 003°06'0 0.0
2018-Jun-16 04:59N 43°23' W 003°06'0 0.0
2018-Jun-16 04:29N 43°23' W 003°06'0 0.0
2018-Jun-16 03:59N 43°23' W 003°06'0 0.0
2018-Jun-16 03:29N 43°23' W 003°06'0 0.0
2018-Jun-16 02:59N 43°23' W 003°06'0 0.0
2018-Jun-16 02:29N 43°23' W 003°06'0 0.0
2018-Jun-16 01:59N 43°23' W 003°06'0 0.0
2018-Jun-16 01:29N 43°23' W 003°07'0 0.0
2018-Jun-16 00:59N 43°23' W 003°06'0 0.0
2018-Jun-16 00:29N 43°23' W 003°06'0 0.0
2018-Jun-15 23:59N 43°23' W 003°06'0 0.0
2018-Jun-15 23:29N 43°23' W 003°06'0 0.0
2018-Jun-15 22:59N 43°23' W 003°06'0 0.0
2018-Jun-15 22:29N 43°23' W 003°06'0 0.0
2018-Jun-15 21:59N 43°23' W 003°06'0 0.0
2018-Jun-15 21:29N 43°23' W 003°06'0 0.0
2018-Jun-15 20:59N 43°23' W 003°06'0 0.0
2018-Jun-15 20:29N 43°23' W 003°06'0 0.0
2018-Jun-15 19:59N 43°23' W 003°06'0 0.0
2018-Jun-15 19:29N 43°23' W 003°07'0 0.0
2018-Jun-15 18:59N 43°23' W 003°07'0 0.0
2018-Jun-15 18:29N 43°23' W 003°07'0 0.0
2018-Jun-15 17:38N 43°23' W 003°07'0 0.0
2018-Jun-15 17:29N 43°23' W 003°07'0 0.0
2018-Jun-15 16:58N 43°23' W 003°07'0 0.1
2018-Jun-15 16:28N 43°23' W 003°06'0 0.0
2018-Jun-15 15:59N 43°23' W 003°06'0 0.0
2018-Jun-15 15:28N 43°23' W 003°06'0 0.0
2018-Jun-15 14:59N 43°23' W 003°06'0 0.0
2018-Jun-15 14:29N 43°23' W 003°06'0 0.0
2018-Jun-15 13:56N 43°23' W 003°06'0 0.0
2018-Jun-15 13:29N 43°23' W 003°06'0 0.0
2018-Jun-15 12:59N 43°23' W 003°06'0 0.0
2018-Jun-15 12:29N 43°23' W 003°06'0 0.0
2018-Jun-15 11:59N 43°23' W 003°06'0 0.0
2018-Jun-15 11:28N 43°23' W 003°06'0 0.0
2018-Jun-15 10:59N 43°23' W 003°06'0 0.0
2018-Jun-15 10:29N 43°23' W 003°06'0 0.0
2018-Jun-15 09:59N 43°23' W 003°06'0 0.0
2018-Jun-15 09:28N 43°23' W 003°06'0 0.0
2018-Jun-15 08:58N 43°23' W 003°06'0 0.0
2018-Jun-15 08:26N 43°23' W 003°06'0 0.0
2018-Jun-15 07:59N 43°23' W 003°06'0 0.0
2018-Jun-15 07:28N 43°23' W 003°06'0 0.1
2018-Jun-15 06:58N 43°23' W 003°06'0 0.0
2018-Jun-15 06:25N 43°23' W 003°06'0 0.1
2018-Jun-15 05:58N 43°23' W 003°06'0 0.1
2018-Jun-15 05:28N 43°23' W 003°07'0 0.1
2018-Jun-15 04:58N 43°23' W 003°07'0 0.0
2018-Jun-15 04:28N 43°23' W 003°07'0 0.0
2018-Jun-15 03:58N 43°23' W 003°07'0 0.1
2018-Jun-15 03:26N 43°23' W 003°07'0 0.1
2018-Jun-15 02:58N 43°23' W 003°07'0 0.1
2018-Jun-15 02:29N 43°23' W 003°06'0 0.1
2018-Jun-15 01:58N 43°23' W 003°06'0 0.1
2018-Jun-15 01:28N 43°23' W 003°06'0 0.1
2018-Jun-15 00:58N 43°24' W 003°06'0 0.1
2018-Jun-15 00:29N 43°24' W 003°06'3 6.3
2018-Jun-15 00:00N 43°27' W 003°07'612.0
2018-Jun-14 23:30N 43°32' W 003°10'612.4
2018-Jun-14 23:00N 43°38' W 003°13'612.2
2018-Jun-14 22:30N 43°44' W 003°16'913.3
2018-Jun-14 21:48N 43°53' W 003°20'413.5
2018-Jun-14 21:29N 43°57' W 003°22'1113.5
2018-Jun-14 20:41N 44°07' W 003°28'17112.3
2018-Jun-14 06:48N 46°47' W 004°54'513.3
2018-Jun-14 06:25N 46°52' W 004°57'913.6
2018-Jun-14 05:48N 46°59' W 005°01'513.9
2018-Jun-14 05:28N 47°04' W 005°04'713.8
2018-Jun-14 04:57N 47°10' W 005°08'1113.3
2018-Jun-14 04:06N 47°21' W 005°13'813.3
2018-Jun-14 03:31N 47°28' W 005°17'013.5
2018-Jun-14 03:30N 47°29' W 005°17'812.8
2018-Jun-14 02:53N 47°36' W 005°21'6312.4
2018-Jun-13 21:45N 48°36' W 005°53'412.2
2018-Jun-13 21:28N 48°39' W 005°55'1313.9
2018-Jun-13 20:33N 48°51' W 005°49'3711.8
2018-Jun-13 17:26N 49°12' W 005°03'6511.5
2018-Jun-13 11:43N 49°44' W 003°36'414.3
2018-Jun-13 11:26N 49°46' W 003°30'714.0
2018-Jun-13 10:57N 49°49' W 003°21'613.6
2018-Jun-13 10:30N 49°52' W 003°13'713.2
2018-Jun-13 10:00N 49°55' W 003°04'613.0
2018-Jun-13 09:31N 49°58' W 002°55'612.5
2018-Jun-13 09:00N 50°01' W 002°46'711.8
2018-Jun-13 08:27N 50°03' W 002°36'2510.2
2018-Jun-13 06:02N 50°10' W 001°59'010.4
2018-Jun-13 06:01N 50°10' W 001°59'610.5
2018-Jun-13 05:26N 50°11' W 001°50'511.3
2018-Jun-13 05:01N 50°13' W 001°42'612.2
2018-Jun-13 04:30N 50°14' W 001°33'713.3
2018-Jun-13 04:00N 50°16' W 001°23'714.4
2018-Jun-13 03:30N 50°18' W 001°12'1715.7
2018-Jun-13 02:24N 50°23' W 000°46'615.8
2018-Jun-13 02:00N 50°25' W 000°37'3514.6
2018-Jun-12 23:35N 50°35' E 000°17'113.6
2018-Jun-12 23:30N 50°35' E 000°18'713.4
2018-Jun-12 23:00N 50°37' E 000°29'713.1
2018-Jun-12 22:30N 50°40' E 000°38'612.6
2018-Jun-12 22:00N 50°43' E 000°46'712.6
2018-Jun-12 21:29N 50°47' E 000°54'1212.7
2018-Jun-12 20:33N 50°55' E 001°09'113.2
2018-Jun-12 20:28N 50°55' E 001°10'613.5
2018-Jun-12 20:01N 50°59' E 001°18'815.0
2018-Jun-12 19:30N 51°04' E 001°28'816.7
2018-Jun-12 19:00N 51°09' E 001°38'816.2
2018-Jun-12 18:30N 51°15' E 001°47'816.3
2018-Jun-12 18:00N 51°22' E 001°53'815.1
2018-Jun-12 17:30N 51°28' E 001°59'714.6
2018-Jun-12 17:00N 51°34' E 002°07'714.1
2018-Jun-12 16:29N 51°39' E 002°15'14312.9
2018-Jun-12 05:25N 53°30' E 004°44'512.0
2018-Jun-12 05:00N 53°32' E 004°52'711.9
2018-Jun-12 04:26N 53°34' E 005°02'  

Dump ship's entire track history